createdAt,value
2019-01-12T00:01:55.155Z,101896.77
2019-01-12T00:04:24.400Z,101895.00
2019-01-12T00:06:53.680Z,101888.88
2019-01-12T00:09:22.967Z,101895.89
2019-01-12T00:11:52.259Z,101884.48
2019-01-12T00:14:21.539Z,101893.26
2019-01-12T00:16:50.824Z,101885.80
2019-01-12T00:19:20.133Z,101884.94
2019-01-12T00:21:49.419Z,101887.56
2019-01-12T00:24:18.708Z,101882.33
2019-01-12T00:26:47.993Z,101884.50
2019-01-12T00:29:17.279Z,101878.81
2019-01-12T00:31:46.552Z,101890.17
2019-01-12T00:34:15.858Z,101877.48
2019-01-12T00:36:45.177Z,101878.36
2019-01-12T00:39:14.460Z,101877.91
2019-01-12T00:41:43.771Z,101872.64
2019-01-12T00:44:13.007Z,101878.77
2019-01-12T00:46:42.397Z,101873.06
2019-01-12T00:49:11.655Z,101870.01
2019-01-12T00:51:40.905Z,101882.70
2019-01-12T00:54:10.175Z,101874.84
2019-01-12T00:56:39.425Z,101876.56
2019-01-12T00:59:08.767Z,101870.47
2019-01-12T01:01:38.001Z,101876.14
2019-01-12T01:04:07.272Z,101868.73
2019-01-12T01:06:36.533Z,101865.66
2019-01-12T01:09:08.134Z,101865.67
2019-01-12T01:11:37.411Z,101863.47
2019-01-12T01:14:06.829Z,101863.91
2019-01-12T01:16:36.105Z,101862.16
2019-01-12T01:19:05.373Z,101863.47
2019-01-12T01:21:34.698Z,101855.56
2019-01-12T01:24:03.967Z,101880.98
2019-01-12T01:26:33.212Z,101875.27
2019-01-12T01:29:02.525Z,101863.42
2019-01-12T01:31:31.783Z,101861.67
2019-01-12T01:34:01.031Z,101859.92
2019-01-12T01:36:30.329Z,101867.37
2019-01-12T01:38:59.629Z,101870.42
2019-01-12T01:41:28.912Z,101877.00
2019-01-12T01:43:58.187Z,101873.48
2019-01-12T01:46:27.513Z,101877.42
2019-01-12T01:48:56.781Z,101873.91
2019-01-12T01:51:26.083Z,101877.89
2019-01-12T01:53:55.387Z,101866.47
2019-01-12T01:56:24.713Z,101861.20
2019-01-12T01:58:53.985Z,101864.73
2019-01-12T02:01:23.256Z,101871.31
2019-01-12T02:03:52.519Z,101870.41
2019-01-12T02:06:21.814Z,101874.35
2019-01-12T02:08:51.093Z,101872.17
2019-01-12T02:11:20.343Z,101872.61
2019-01-12T02:13:49.653Z,101864.27
2019-01-12T02:16:18.955Z,101875.23
2019-01-12T02:18:48.239Z,101875.67
2019-01-12T02:21:17.533Z,101873.95
2019-01-12T02:23:46.822Z,101871.30
2019-01-12T02:26:16.125Z,101874.80
2019-01-12T02:28:45.529Z,101874.81
2019-01-12T02:31:14.799Z,101875.25
2019-01-12T02:33:44.149Z,101864.27
2019-01-12T02:36:13.440Z,101870.41
2019-01-12T02:38:42.706Z,101866.92
2019-01-12T02:41:12.035Z,101856.80
2019-01-12T02:43:41.299Z,101862.08
2019-01-12T02:46:10.618Z,101859.89
2019-01-12T02:48:39.879Z,101857.70
2019-01-12T02:51:09.251Z,101855.95
2019-01-12T02:53:38.440Z,101860.78
2019-01-12T02:56:07.755Z,101862.53
2019-01-12T02:58:37.109Z,101863.86
2019-01-12T03:01:06.377Z,101872.18
2019-01-12T03:03:35.616Z,101852.42
2019-01-12T03:06:04.907Z,101851.13
2019-01-12T03:08:34.157Z,101843.27
2019-01-12T03:11:03.450Z,101849.81
2019-01-12T03:13:32.747Z,101852.89
2019-01-12T03:16:02.012Z,101853.78
2019-01-12T03:18:31.293Z,101852.47
2019-01-12T03:21:00.555Z,101848.95
2019-01-12T03:23:29.814Z,101845.02
2019-01-12T03:25:59.062Z,101856.41
2019-01-12T03:28:28.367Z,101851.62
2019-01-12T03:30:57.631Z,101841.09
2019-01-12T03:33:26.899Z,101841.09
2019-01-12T03:35:56.197Z,101834.09
2019-01-12T03:38:26.983Z,101835.47
2019-01-12T03:40:54.701Z,101842.92
2019-01-12T03:43:24.024Z,101830.19
2019-01-12T03:45:53.351Z,101828.47
2019-01-12T03:48:22.733Z,101821.92
2019-01-12T03:50:52.465Z,101825.41
2019-01-12T03:53:21.765Z,101825.41
2019-01-12T03:55:50.988Z,101815.80
2019-01-12T03:58:20.238Z,101810.95
2019-01-12T04:00:49.580Z,101806.59
2019-01-12T04:03:18.823Z,101802.64
2019-01-12T04:05:48.071Z,101804.83
2019-01-12T04:08:17.366Z,101810.95
2019-01-12T04:10:46.597Z,101810.92
2019-01-12T04:13:15.874Z,101802.16
2019-01-12T04:15:45.119Z,101791.67
2019-01-12T04:18:14.371Z,101797.78
2019-01-12T04:20:43.627Z,101795.61
2019-01-12T04:23:12.867Z,101794.28
2019-01-12T04:25:42.119Z,101796.47
2019-01-12T04:28:11.436Z,101796.91
2019-01-12T04:30:40.686Z,101798.68
2019-01-12T04:33:09.948Z,101800.86
2019-01-12T04:35:39.211Z,101803.02
2019-01-12T04:38:08.502Z,101796.90
2019-01-12T04:40:37.769Z,101796.45
2019-01-12T04:43:06.989Z,101799.97
2019-01-12T04:45:36.255Z,101787.27
2019-01-12T04:48:05.506Z,101791.67
2019-01-12T04:50:34.791Z,101785.98
2019-01-12T04:53:04.062Z,101791.22
2019-01-12T04:55:41.033Z,101785.96
2019-01-12T04:58:02.571Z,101793.43
2019-01-12T05:00:31.829Z,101780.73
2019-01-12T05:03:01.105Z,101778.53
2019-01-12T05:05:30.377Z,101774.17
2019-01-12T05:07:59.627Z,101770.66
2019-01-12T05:10:28.904Z,101764.92
2019-01-12T05:12:58.109Z,101773.28
2019-01-12T05:15:27.375Z,101765.84
2019-01-12T05:17:56.648Z,101756.17
2019-01-12T05:20:25.918Z,101766.71
2019-01-12T05:22:55.179Z,101758.81
2019-01-12T05:25:24.435Z,101775.03
2019-01-12T05:27:56.516Z,101763.65
2019-01-12T05:30:25.799Z,101761.48
2019-01-12T05:32:55.073Z,101757.98
2019-01-12T05:35:24.390Z,101764.09
2019-01-12T05:37:53.671Z,101765.84
2019-01-12T05:40:22.949Z,101758.83
2019-01-12T05:42:52.199Z,101768.48
2019-01-12T05:45:21.453Z,101755.36
2019-01-12T05:47:50.681Z,101762.78
2019-01-12T05:50:19.946Z,101768.92
2019-01-12T05:52:49.247Z,101767.61
2019-01-12T05:55:18.493Z,101761.03
2019-01-12T05:57:47.775Z,101772.85
2019-01-12T06:00:21.340Z,101763.23
2019-01-12T06:02:50.651Z,101764.55
2019-01-12T06:05:19.875Z,101763.70
2019-01-12T06:07:49.138Z,101774.22
2019-01-12T06:10:18.363Z,101769.39
2019-01-12T06:12:47.621Z,101766.77
2019-01-12T06:15:16.892Z,101770.77
2019-01-12T06:17:46.154Z,101758.94
2019-01-12T06:20:15.967Z,101755.42
2019-01-12T06:22:45.249Z,101751.48
2019-01-12T06:25:14.486Z,101758.50
2019-01-12T06:27:43.754Z,101752.83
2019-01-12T06:30:17.871Z,101759.37
2019-01-12T06:32:47.133Z,101756.77
2019-01-12T06:35:16.382Z,101755.02
2019-01-12T06:37:45.685Z,101759.81
2019-01-12T06:40:16.740Z,101758.93
2019-01-12T06:42:46.044Z,101777.80
2019-01-12T06:45:15.563Z,101771.67
2019-01-12T06:47:44.810Z,101763.34
2019-01-12T06:50:15.211Z,101774.76
2019-01-12T06:52:44.463Z,101761.19
2019-01-12T06:55:13.710Z,101762.05
2019-01-12T06:57:42.992Z,101765.54
2019-01-12T07:00:14.761Z,101749.38
2019-01-12T07:02:44.003Z,101751.13
2019-01-12T07:05:13.226Z,101761.65
2019-01-12T07:07:42.492Z,101747.62
2019-01-12T07:10:11.982Z,101747.17
2019-01-12T07:12:41.244Z,101749.36
2019-01-12T07:15:11.757Z,101752.88
2019-01-12T07:17:41.089Z,101750.68
2019-01-12T07:20:12.755Z,101755.08
2019-01-12T07:22:42.052Z,101751.14
2019-01-12T07:25:11.305Z,101751.13
2019-01-12T07:27:40.559Z,101749.84
2019-01-12T07:30:21.831Z,101744.12
2019-01-12T07:32:51.115Z,101737.55
2019-01-12T07:35:20.401Z,101736.69
2019-01-12T07:37:49.686Z,101741.52
2019-01-12T07:40:18.971Z,101737.12
2019-01-12T07:42:48.254Z,101734.50
2019-01-12T07:45:17.514Z,101733.62
2019-01-12T07:47:46.785Z,101730.11
2019-01-12T07:50:16.088Z,101735.81
2019-01-12T07:52:45.375Z,101737.11
2019-01-12T07:55:14.661Z,101732.75
2019-01-12T07:57:43.910Z,101725.29
2019-01-12T08:00:16.180Z,101727.48
2019-01-12T08:02:45.431Z,101726.19
2019-01-12T08:05:14.993Z,101723.99
2019-01-12T08:07:44.273Z,101728.38
2019-01-12T08:10:16.197Z,101720.46
2019-01-12T08:12:45.484Z,101706.45
2019-01-12T08:15:14.808Z,101703.83
2019-01-12T08:17:44.053Z,101704.73
2019-01-12T08:20:13.355Z,101699.92
2019-01-12T08:22:42.626Z,101697.30
2019-01-12T08:25:11.901Z,101696.41
2019-01-12T08:27:41.179Z,101693.36
2019-01-12T08:30:12.942Z,101683.28
2019-01-12T08:32:42.233Z,101678.47
2019-01-12T08:35:11.541Z,101687.66
2019-01-12T08:37:40.861Z,101671.45
2019-01-12T08:40:10.939Z,101666.63
2019-01-12T08:42:40.239Z,101658.75
2019-01-12T08:45:10.265Z,101671.02
2019-01-12T08:47:39.503Z,101667.91
2019-01-12T08:50:12.001Z,101664.44
2019-01-12T08:52:41.273Z,101664.85
2019-01-12T08:55:10.818Z,101657.37
2019-01-12T08:57:40.091Z,101673.14
2019-01-12T09:00:12.830Z,101661.80
2019-01-12T09:02:42.101Z,101663.11
2019-01-12T09:05:11.434Z,101652.59
2019-01-12T09:07:40.701Z,101644.73
2019-01-12T09:10:12.577Z,101658.31
2019-01-12T09:12:41.849Z,101646.91
2019-01-12T09:15:11.130Z,101651.27
2019-01-12T09:17:40.395Z,101641.19
2019-01-12T09:20:10.588Z,101635.05
2019-01-12T09:22:39.839Z,101631.09
2019-01-12T09:25:09.759Z,101636.36
2019-01-12T09:27:38.997Z,101633.70
2019-01-12T09:30:11.670Z,101632.41
2019-01-12T09:32:40.950Z,101631.96
2019-01-12T09:35:10.203Z,101630.66
2019-01-12T09:37:39.585Z,101630.63
2019-01-12T09:40:11.229Z,101624.05
2019-01-12T09:42:40.619Z,101611.77
2019-01-12T09:45:10.736Z,101599.47
2019-01-12T09:47:41.642Z,101609.12
2019-01-12T09:50:13.494Z,101600.31
2019-01-12T09:52:42.778Z,101588.02
2019-01-12T09:55:12.097Z,101594.15
2019-01-12T09:57:41.370Z,101577.05
2019-01-12T10:00:14.262Z,101575.32
2019-01-12T10:02:43.612Z,101564.80
2019-01-12T10:05:12.936Z,101573.13
2019-01-12T10:07:42.269Z,101562.59
2019-01-12T10:10:13.877Z,101554.70
2019-01-12T10:12:43.168Z,101549.06
2019-01-12T10:15:12.517Z,101543.33
2019-01-12T10:17:41.848Z,101542.46
2019-01-12T10:20:13.573Z,101528.45
2019-01-12T10:22:42.871Z,101523.59
2019-01-12T10:25:12.373Z,101506.08
2019-01-12T10:27:41.655Z,101502.52
2019-01-12T10:30:16.480Z,101502.55
2019-01-12T10:32:45.747Z,101496.88
2019-01-12T10:35:15.043Z,101486.78
2019-01-12T10:37:44.323Z,101488.55
2019-01-12T10:40:13.605Z,101479.82
2019-01-12T10:42:42.891Z,101451.80
2019-01-12T10:45:13.152Z,101454.84
2019-01-12T10:47:43.953Z,101454.02
2019-01-12T10:50:16.365Z,101435.61
2019-01-12T10:52:45.642Z,101452.64
2019-01-12T10:55:14.913Z,101443.92
2019-01-12T10:57:44.241Z,101430.74
2019-01-12T11:00:16.785Z,101434.62
2019-01-12T11:02:46.100Z,101426.80
2019-01-12T11:05:15.426Z,101441.67
2019-01-12T11:07:44.720Z,101421.58
2019-01-12T11:10:14.213Z,101429.05
2019-01-12T11:12:43.510Z,101429.87
2019-01-12T11:15:15.165Z,101407.13
2019-01-12T11:17:44.440Z,101406.70
2019-01-12T11:20:13.772Z,101405.80
2019-01-12T11:22:43.065Z,101390.86
2019-01-12T11:25:12.573Z,101377.72
2019-01-12T11:27:41.843Z,101363.75
2019-01-12T11:30:13.457Z,101359.39
2019-01-12T11:32:42.767Z,101349.75
2019-01-12T11:35:12.086Z,101353.23
2019-01-12T11:37:41.471Z,101348.87
2019-01-12T11:40:18.641Z,101346.70
2019-01-12T11:42:48.673Z,101341.41
2019-01-12T11:45:17.963Z,101335.70
2019-01-12T11:47:47.255Z,101317.30
2019-01-12T11:50:16.671Z,101327.33
2019-01-12T11:52:46.021Z,101306.29
2019-01-12T11:55:16.068Z,101303.22
2019-01-12T11:57:45.855Z,101314.59
2019-01-12T12:00:21.452Z,101294.42
2019-01-12T12:02:47.303Z,101288.30
2019-01-12T12:05:17.349Z,101276.44
2019-01-12T12:07:45.940Z,101281.64
2019-01-12T12:10:15.239Z,101270.27
2019-01-12T12:12:44.797Z,101263.66
2019-01-12T12:15:14.277Z,101255.77
2019-01-12T12:17:43.589Z,101242.62
2019-01-12T12:20:21.128Z,101226.84
2019-01-12T12:22:50.394Z,101240.40
2019-01-12T12:25:19.755Z,101220.99
2019-01-12T12:27:49.099Z,101224.98
2019-01-12T12:30:23.286Z,101206.58
2019-01-12T12:32:52.577Z,101205.31
2019-01-12T12:35:21.918Z,101189.48
2019-01-12T12:37:52.682Z,101181.55
2019-01-12T12:40:20.698Z,101180.69
2019-01-12T12:42:49.978Z,101164.41
2019-01-12T12:45:24.389Z,101162.64
2019-01-12T12:47:53.647Z,101163.55
2019-01-12T12:50:22.948Z,101143.33
2019-01-12T12:52:52.287Z,101159.09
2019-01-12T12:55:21.638Z,101133.26
2019-01-12T12:57:50.892Z,101137.55
2019-01-12T13:00:21.793Z,101140.67
2019-01-12T13:02:51.039Z,101136.28
2019-01-12T13:05:20.335Z,101129.66
2019-01-12T13:07:49.630Z,101119.23
2019-01-12T13:10:20.849Z,101113.07
2019-01-12T13:12:50.169Z,101111.34
2019-01-12T13:15:19.446Z,101105.63
2019-01-12T13:17:48.792Z,101095.97
2019-01-12T13:20:18.426Z,101096.84
2019-01-12T13:22:49.359Z,101088.89
2019-01-12T13:25:17.277Z,101074.42
2019-01-12T13:27:46.717Z,101086.71
2019-01-12T13:30:20.994Z,101062.59
2019-01-12T13:32:50.336Z,101061.16
2019-01-12T13:35:19.609Z,101063.34
2019-01-12T13:37:48.927Z,101062.88
2019-01-12T13:40:22.913Z,101074.24
2019-01-12T13:42:52.237Z,101050.58
2019-01-12T13:45:21.550Z,101058.08
2019-01-12T13:47:50.956Z,101044.06
2019-01-12T13:50:22.169Z,101052.80
2019-01-12T13:52:51.445Z,101046.23
2019-01-12T13:55:20.715Z,101048.86
2019-01-12T13:57:50.039Z,101040.05
2019-01-12T14:00:24.699Z,101028.56
2019-01-12T14:02:53.983Z,101032.11
2019-01-12T14:05:23.273Z,101035.53
2019-01-12T14:07:56.562Z,101033.28
2019-01-12T14:10:21.849Z,101021.05
2019-01-12T14:12:51.134Z,101020.53
2019-01-12T14:15:20.424Z,101021.39
2019-01-12T14:17:49.773Z,101008.26
2019-01-12T14:20:21.541Z,101010.48
2019-01-12T14:22:50.851Z,101025.40
2019-01-12T14:25:20.146Z,101005.72
2019-01-12T14:27:54.232Z,101005.34
2019-01-12T14:30:18.981Z,101023.75
2019-01-12T14:32:48.338Z,101000.14
2019-01-12T14:35:17.652Z,100984.36
2019-01-12T14:37:47.003Z,100996.19
2019-01-12T14:40:17.393Z,100984.36
2019-01-12T14:42:46.694Z,100986.92
2019-01-12T14:45:18.516Z,100986.13
2019-01-12T14:47:47.818Z,100981.73
2019-01-12T14:50:17.060Z,100977.33
2019-01-12T14:52:46.417Z,100970.30
2019-01-12T14:55:16.021Z,100975.47
2019-01-12T14:57:45.283Z,100977.66
2019-01-12T15:00:16.890Z,100982.80
2019-01-12T15:02:46.136Z,100972.20
2019-01-12T15:05:16.887Z,100955.45
2019-01-12T15:07:46.197Z,100970.33
2019-01-12T15:10:16.743Z,100948.33
2019-01-12T15:12:46.286Z,100954.44
2019-01-12T15:15:15.656Z,100964.90
2019-01-12T15:17:44.920Z,100952.08
2019-01-12T15:20:16.461Z,100948.13
2019-01-12T15:22:45.717Z,100942.73
2019-01-12T15:25:15.117Z,100932.17
2019-01-12T15:27:44.381Z,100938.22
2019-01-12T15:30:16.342Z,100940.45
2019-01-12T15:32:45.685Z,100946.14
2019-01-12T15:35:15.499Z,100946.20
2019-01-12T15:37:44.800Z,100941.78
2019-01-12T15:40:15.013Z,100946.19
2019-01-12T15:42:44.271Z,100949.48
2019-01-12T15:45:21.168Z,100942.27
2019-01-12T15:47:50.453Z,100960.46
2019-01-12T15:50:21.648Z,100933.41
2019-01-12T15:52:50.940Z,100943.03
2019-01-12T15:55:20.254Z,100949.61
2019-01-12T15:57:49.533Z,100952.38
2019-01-12T16:00:23.536Z,100958.12
2019-01-12T16:02:52.775Z,100941.47
2019-01-12T16:05:22.025Z,100936.11
2019-01-12T16:07:51.311Z,100933.48
2019-01-12T16:10:20.557Z,100923.05
2019-01-12T16:12:49.832Z,100921.27
2019-01-12T16:15:20.899Z,100926.53
2019-01-12T16:17:50.197Z,100923.88
2019-01-12T16:20:21.942Z,100918.19
2019-01-12T16:22:51.236Z,100914.69
2019-01-12T16:25:21.534Z,100919.16
2019-01-12T16:27:50.814Z,100912.11
2019-01-12T16:30:20.566Z,100908.97
2019-01-12T16:32:49.877Z,100911.20
2019-01-12T16:35:19.150Z,100908.66
2019-01-12T16:37:48.433Z,100914.84
2019-01-12T16:40:19.785Z,100908.66
2019-01-12T16:42:49.105Z,100909.48
2019-01-12T16:45:18.363Z,100904.63
2019-01-12T16:47:47.715Z,100903.39
2019-01-12T16:50:16.980Z,100888.91
2019-01-12T16:52:46.261Z,100892.53
2019-01-12T16:55:16.165Z,100897.86
2019-01-12T16:57:45.509Z,100889.65
2019-01-12T17:00:28.682Z,100889.59
2019-01-12T17:02:58.403Z,100885.63
2019-01-12T17:05:27.692Z,100894.86
2019-01-12T17:07:57.015Z,100900.17
2019-01-12T17:10:26.271Z,100908.86
2019-01-12T17:12:55.553Z,100911.02
2019-01-12T17:15:24.837Z,100902.20
2019-01-12T17:17:54.125Z,100914.52
2019-01-12T17:20:26.618Z,100914.84
2019-01-12T17:22:58.387Z,100918.56
2019-01-12T17:25:27.643Z,100921.11
2019-01-12T17:27:56.986Z,100923.97
2019-01-12T17:30:26.378Z,100927.52
2019-01-12T17:32:55.751Z,100912.98
2019-01-12T17:35:25.425Z,100915.67
2019-01-12T17:37:54.782Z,100918.30
2019-01-12T17:40:24.035Z,100910.09
2019-01-12T17:42:53.329Z,100915.44
2019-01-12T17:45:24.201Z,100900.03
2019-01-12T17:47:53.571Z,100897.48
2019-01-12T17:50:24.596Z,100895.66
2019-01-12T17:52:53.892Z,100897.02
2019-01-12T17:55:27.290Z,100895.25
2019-01-12T17:57:56.583Z,100900.12
2019-01-12T18:00:47.904Z,100895.70
2019-01-12T18:03:16.024Z,100889.07
2019-01-12T18:05:45.295Z,100893.47
2019-01-12T18:08:14.577Z,100884.72
2019-01-12T18:10:43.907Z,100885.65
2019-01-12T18:13:13.141Z,100886.51
2019-01-12T18:15:42.521Z,100884.38
2019-01-12T18:18:11.793Z,100886.12
2019-01-12T18:20:41.097Z,100877.30
2019-01-12T18:23:10.343Z,100886.97
2019-01-12T18:25:39.641Z,100888.27
2019-01-12T18:28:08.892Z,100886.42
2019-01-12T18:30:38.210Z,100880.37
2019-01-12T18:33:07.463Z,100888.40
2019-01-12T18:35:36.811Z,100892.30
2019-01-12T18:38:06.091Z,100894.52
2019-01-12T18:40:35.384Z,100889.72
2019-01-12T18:43:04.629Z,100887.44
2019-01-12T18:45:33.861Z,100880.00
2019-01-12T18:48:03.153Z,100885.18
2019-01-12T18:50:32.494Z,100879.98
2019-01-12T18:53:01.750Z,100871.23
2019-01-12T18:55:31.007Z,100862.02
2019-01-12T18:58:00.302Z,100873.88
2019-01-12T19:00:29.955Z,100865.91
2019-01-12T19:02:59.267Z,100863.28
2019-01-12T19:05:28.569Z,100863.76
2019-01-12T19:07:57.897Z,100872.55
2019-01-12T19:10:27.213Z,100860.27
2019-01-12T19:12:56.541Z,100867.28
2019-01-12T19:15:30.500Z,100862.56
2019-01-12T19:17:59.832Z,100865.13
2019-01-12T19:20:29.106Z,100861.27
2019-01-12T19:22:58.589Z,100870.41
2019-01-12T19:25:27.905Z,100864.35
2019-01-12T19:27:57.228Z,100853.48
2019-01-12T19:30:26.460Z,100846.06
2019-01-12T19:32:55.734Z,100852.23
2019-01-12T19:35:24.954Z,100847.91
2019-01-12T19:37:54.249Z,100824.61
2019-01-12T19:40:24.940Z,100839.94
2019-01-12T19:42:54.311Z,100827.26
2019-01-12T19:45:23.554Z,100843.02
2019-01-12T19:47:52.965Z,100839.98
2019-01-12T19:50:26.204Z,100843.95
2019-01-12T19:52:55.979Z,100849.23
2019-01-12T19:55:25.412Z,100844.02
2019-01-12T19:57:54.676Z,100845.34
2019-01-12T20:00:29.210Z,100848.83
2019-01-12T20:02:58.508Z,100838.78
2019-01-12T20:05:27.817Z,100836.22
2019-01-12T20:07:57.108Z,100835.38
2019-01-12T20:10:26.547Z,100832.36
2019-01-12T20:12:55.883Z,100834.17
2019-01-12T20:15:25.657Z,100830.77
2019-01-12T20:17:54.990Z,100824.59
2019-01-12T20:20:24.273Z,100813.63
2019-01-12T20:22:53.613Z,100815.53
2019-01-12T20:25:30.043Z,100825.12
2019-01-12T20:28:05.284Z,100825.12
2019-01-12T20:31:02.173Z,100820.34
2019-01-12T20:33:55.850Z,100812.92
2019-01-12T20:36:57.050Z,100816.14
2019-01-12T20:39:57.914Z,100808.31
2019-01-12T20:43:10.223Z,100808.45
2019-01-12T20:46:21.863Z,100799.78
2019-01-12T20:49:12.554Z,100813.39
2019-01-12T20:52:14.875Z,100805.12
2019-01-12T20:55:17.983Z,100806.55
2019-01-12T20:57:58.065Z,100806.03
2019-01-12T21:01:00.335Z,100802.09
2019-01-12T21:04:05.896Z,100805.23
2019-01-12T21:07:06.183Z,100800.84
2019-01-12T21:10:24.991Z,100800.11
2019-01-12T21:13:48.320Z,100799.27
2019-01-12T21:16:21.126Z,100794.42
2019-01-12T21:18:50.376Z,100792.17
2019-01-12T21:21:19.666Z,100788.15
2019-01-12T21:23:48.940Z,100781.52
2019-01-12T21:26:18.288Z,100788.47
2019-01-12T21:28:47.569Z,100782.31
2019-01-12T21:31:16.877Z,100782.64
2019-01-12T21:33:46.162Z,100788.80
2019-01-12T21:36:15.450Z,100785.72
2019-01-12T21:38:44.747Z,100782.17
2019-01-12T21:41:14.054Z,100783.47
2019-01-12T21:43:43.346Z,100780.33
2019-01-12T21:46:12.685Z,100783.42
2019-01-12T21:48:41.935Z,100782.97
2019-01-12T21:51:11.272Z,100775.97
2019-01-12T21:53:40.590Z,100776.45
2019-01-12T21:56:09.903Z,100757.98
2019-01-12T21:58:39.236Z,100780.25
2019-01-12T22:01:08.522Z,100779.78
2019-01-12T22:03:37.782Z,100792.86
2019-01-12T22:06:07.077Z,100778.33
2019-01-12T22:08:36.349Z,100782.20
2019-01-12T22:11:05.581Z,100773.84
2019-01-12T22:13:34.899Z,100787.38
2019-01-12T22:16:04.185Z,100767.20
2019-01-12T22:18:33.520Z,100770.23
2019-01-12T22:21:02.837Z,100764.96
2019-01-12T22:23:32.631Z,100775.81
2019-01-12T22:26:01.921Z,100759.16
2019-01-12T22:28:31.277Z,100757.75
2019-01-12T22:31:00.578Z,100763.03
2019-01-12T22:33:29.888Z,100766.50
2019-01-12T22:35:59.142Z,100764.88
2019-01-12T22:38:28.499Z,100782.77
2019-01-12T22:40:57.783Z,100757.79
2019-01-12T22:43:27.125Z,100757.39
2019-01-12T22:45:56.405Z,100758.17
2019-01-12T22:48:25.709Z,100755.98
2019-01-12T22:50:54.956Z,100760.69
2019-01-12T22:53:24.279Z,100762.05
2019-01-12T22:55:53.589Z,100745.72
2019-01-12T22:58:22.973Z,100759.30
2019-01-12T23:01:10.602Z,100757.55
2019-01-12T23:03:39.441Z,100755.30
2019-01-12T23:06:08.693Z,100761.00
2019-01-12T23:08:38.171Z,100764.95
2019-01-12T23:11:07.766Z,100740.84
2019-01-12T23:13:37.263Z,100757.98
2019-01-12T23:16:06.561Z,100756.14
2019-01-12T23:18:35.969Z,100763.70
2019-01-12T23:21:05.216Z,100751.36
2019-01-12T23:23:34.522Z,100751.03
2019-01-12T23:26:03.821Z,100744.91
2019-01-12T23:28:33.099Z,100755.36
2019-01-12T23:31:02.387Z,100751.89
2019-01-12T23:33:31.713Z,100752.22
2019-01-12T23:36:01.039Z,100756.62
2019-01-12T23:38:30.365Z,100747.08
2019-01-12T23:40:59.679Z,100755.05
2019-01-12T23:43:28.964Z,100749.23
2019-01-12T23:45:58.231Z,100748.02
2019-01-12T23:48:27.521Z,100752.20
2019-01-12T23:50:56.807Z,100741.75
2019-01-12T23:53:26.063Z,100748.32
2019-01-12T23:55:55.343Z,100749.72
2019-01-12T23:58:24.615Z,100747.92
